Time;durP1;ratioP1;P1;durP2;ratioP2;P2;SDS_P1;SDS_P2;PMS_P1;PMS_P2;Temp;Humidity;BMP_temperature;BMP_pressure;BME280_temperature;BME280_humidity;BME280_pressure;Samples;Min_cycle;Max_cycle;Signal;HPM_P1;HPM_P2
2022/07/02 00:00:45;;;;;;;14.73;8.20;;;;;;;;;;5045878;28;20376;-76
2022/07/02 00:03:10;;;;;;;16.05;8.25;;;;;;;;;;5038530;28;20036;-77
2022/07/02 00:05:37;;;;;;;16.00;9.02;;;;;;;;;;5035666;28;20025;-79
2022/07/02 00:08:02;;;;;;;19.38;10.95;;;;;;;;;;5050812;28;20462;-77
2022/07/02 00:10:28;;;;;;;25.25;14.45;;;;;;;;;;5047924;28;20045;-77
2022/07/02 00:12:53;;;;;;;16.42;10.77;;;;;;;;;;5028318;28;20021;-77
2022/07/02 00:15:18;;;;;;;23.65;16.67;;;;;;;;;;5044468;28;20514;-76
2022/07/02 00:17:44;;;;;;;27.52;14.77;;;;;;;;;;5034864;28;20124;-76
2022/07/02 00:20:09;;;;;;;22.73;16.05;;;;;;;;;;5052280;28;20487;-78
2022/07/02 00:22:35;;;;;;;30.05;15.90;;;;;;;;;;5051511;28;20111;-78
2022/07/02 00:25:00;;;;;;;25.75;16.85;;;;;;;;;;5034306;28;20028;-77
2022/07/02 00:27:27;;;;;;;26.90;20.92;;;;;;;;;;5051237;28;20036;-76
2022/07/02 00:29:59;;;;;;;30.85;22.27;;;;;;;;;;5046616;28;20029;-77
2022/07/02 00:32:25;;;;;;;18.13;10.23;;;;;;;;;;5031447;28;20037;-77
2022/07/02 00:34:51;;;;;;;21.25;13.25;;;;;;;;;;5020392;28;20111;-77
2022/07/02 00:37:16;;;;;;;15.82;10.50;;;;;;;;;;5050932;28;20170;-77
2022/07/02 00:39:42;;;;;;;13.75;9.85;;;;;;;;;;5045110;28;20079;-76
2022/07/02 00:42:07;;;;;;;19.13;10.02;;;;;;;;;;5044468;28;20543;-77
2022/07/02 00:44:33;;;;;;;14.95;9.40;;;;;;;;;;5051090;28;20020;-77
2022/07/02 00:46:59;;;;;;;13.23;8.15;;;;;;;;;;5051002;28;20037;-77
2022/07/02 00:49:24;;;;;;;13.25;6.70;;;;;;;;;;5029671;28;20074;-76
2022/07/02 00:51:50;;;;;;;11.60;5.70;;;;;;;;;;5014950;28;20605;-76
2022/07/02 00:54:16;;;;;;;13.27;6.38;;;;;;;;;;5031806;28;20021;-77
2022/07/02 00:56:41;;;;;;;12.07;6.30;;;;;;;;;;5031209;28;20414;-77
2022/07/02 00:59:07;;;;;;;10.77;5.72;;;;;;;;;;5018826;28;20029;-76
2022/07/02 01:01:32;;;;;;;9.90;5.53;;;;;;;;;;5033881;28;20041;-77
2022/07/02 01:03:58;;;;;;;15.20;5.43;;;;;;;;;;5046719;28;20013;-76
2022/07/02 01:06:24;;;;;;;11.25;5.20;;;;;;;;;;5031981;28;20423;-77
2022/07/02 01:11:34;;;;;;;7.95;5.10;;;;;;;;;;5045378;28;20028;-77
2022/07/02 01:13:59;;;;;;;14.38;5.40;;;;;;;;;;5050561;28;20028;-77
2022/07/02 01:16:25;;;;;;;12.73;5.00;;;;;;;;;;5050260;28;20033;-77
2022/07/02 01:18:50;;;;;;;10.95;4.95;;;;;;;;;;5050416;28;20017;-77
2022/07/02 01:21:16;;;;;;;9.68;4.75;;;;;;;;;;5050587;28;20063;-77
2022/07/02 01:23:41;;;;;;;10.77;5.20;;;;;;;;;;5045074;28;20128;-77
2022/07/02 01:26:07;;;;;;;9.93;5.30;;;;;;;;;;5035898;28;20033;-77
2022/07/02 01:28:32;;;;;;;8.40;4.53;;;;;;;;;;5038060;28;20032;-76
2022/07/02 01:30:58;;;;;;;8.48;4.20;;;;;;;;;;5049759;28;20116;-77
2022/07/02 01:33:23;;;;;;;9.60;4.45;;;;;;;;;;5029240;28;20021;-77
2022/07/02 01:35:48;;;;;;;9.27;3.70;;;;;;;;;;5050969;28;20043;-77
2022/07/02 01:38:14;;;;;;;9.50;4.03;;;;;;;;;;5018737;28;20045;-77
2022/07/02 01:40:40;;;;;;;6.25;3.13;;;;;;;;;;5013522;28;20041;-75
2022/07/02 01:43:05;;;;;;;12.70;3.25;;;;;;;;;;5013647;28;20030;-75
2022/07/02 01:45:31;;;;;;;7.47;3.28;;;;;;;;;;5030288;28;20048;-77
2022/07/02 01:47:56;;;;;;;6.50;3.30;;;;;;;;;;5030647;28;20032;-77
2022/07/02 01:50:22;;;;;;;6.70;3.30;;;;;;;;;;5030041;28;20040;-77
2022/07/02 01:52:47;;;;;;;8.10;3.35;;;;;;;;;;5031536;28;20036;-77
2022/07/02 01:55:13;;;;;;;7.80;3.75;;;;;;;;;;5031020;28;20108;-77
2022/07/02 01:57:38;;;;;;;6.80;3.58;;;;;;;;;;5021862;28;20606;-77
2022/07/02 02:00:08;;;;;;;6.47;3.53;;;;;;;;;;5016334;28;20040;-77
2022/07/02 02:02:33;;;;;;;6.88;3.30;;;;;;;;;;5049581;28;20025;-77
2022/07/02 02:04:59;;;;;;;9.23;3.60;;;;;;;;;;5048861;28;20040;-77
2022/07/02 02:07:24;;;;;;;5.75;3.10;;;;;;;;;;5050627;28;20060;-77
2022/07/02 02:09:50;;;;;;;4.95;3.42;;;;;;;;;;5049468;28;20041;-77
2022/07/02 02:12:15;;;;;;;4.95;3.08;;;;;;;;;;5047982;28;20047;-77
2022/07/02 02:14:41;;;;;;;7.95;3.50;;;;;;;;;;5032016;28;20033;-77
2022/07/02 02:17:06;;;;;;;7.60;3.50;;;;;;;;;;5033991;28;20029;-77
2022/07/02 02:19:31;;;;;;;9.45;3.55;;;;;;;;;;5034111;28;20393;-77
2022/07/02 02:21:57;;;;;;;8.35;3.20;;;;;;;;;;5035354;28;20487;-77
2022/07/02 02:24:23;;;;;;;6.15;3.22;;;;;;;;;;5034290;28;20025;-77
2022/07/02 02:26:48;;;;;;;5.55;3.60;;;;;;;;;;5034460;28;20041;-75
2022/07/02 02:29:14;;;;;;;12.05;3.63;;;;;;;;;;5035151;28;20575;-76
2022/07/02 02:31:39;;;;;;;6.35;3.17;;;;;;;;;;5017926;28;20071;-76
2022/07/02 02:34:05;;;;;;;7.25;3.50;;;;;;;;;;5035118;28;20071;-76
2022/07/02 02:36:30;;;;;;;8.73;3.60;;;;;;;;;;5048595;28;20116;-76
2022/07/02 02:38:56;;;;;;;7.35;3.50;;;;;;;;;;5054570;28;20114;-76
2022/07/02 02:41:21;;;;;;;10.55;3.88;;;;;;;;;;5053018;28;20037;-76
2022/07/02 02:43:47;;;;;;;6.78;3.67;;;;;;;;;;5054648;28;20029;-76
2022/07/02 02:46:12;;;;;;;7.45;3.67;;;;;;;;;;5052940;28;20044;-76
2022/07/02 02:48:38;;;;;;;6.53;3.50;;;;;;;;;;5039616;28;20025;-76
2022/07/02 02:51:03;;;;;;;6.35;3.13;;;;;;;;;;5054307;28;20403;-76
2022/07/02 02:53:29;;;;;;;6.57;3.33;;;;;;;;;;5023020;28;20052;-77
2022/07/02 02:55:55;;;;;;;5.85;3.28;;;;;;;;;;5041567;28;20038;-77
2022/07/02 02:58:20;;;;;;;6.50;3.08;;;;;;;;;;5052211;28;20029;-77
2022/07/02 03:00:45;;;;;;;5.35;3.20;;;;;;;;;;5054450;28;20128;-76
2022/07/02 03:03:11;;;;;;;5.57;3.38;;;;;;;;;;5034635;28;20028;-76
2022/07/02 03:05:36;;;;;;;6.22;3.63;;;;;;;;;;5034566;28;20042;-76
2022/07/02 03:08:02;;;;;;;5.50;4.28;;;;;;;;;;5034632;28;20823;-77
2022/07/02 03:10:27;;;;;;;9.20;3.72;;;;;;;;;;5033022;28;20499;-77
2022/07/02 03:12:53;;;;;;;7.30;3.10;;;;;;;;;;5034400;28;20043;-77
2022/07/02 03:15:18;;;;;;;5.28;2.90;;;;;;;;;;5032788;28;20041;-77
2022/07/02 03:17:44;;;;;;;6.47;3.63;;;;;;;;;;5034611;28;20033;-77
2022/07/02 03:20:09;;;;;;;10.30;3.17;;;;;;;;;;5033289;28;20121;-78
2022/07/02 03:22:35;;;;;;;5.72;3.08;;;;;;;;;;5034627;28;20108;-77
2022/07/02 03:25:00;;;;;;;8.32;3.00;;;;;;;;;;5032855;28;20536;-77
2022/07/02 03:27:26;;;;;;;9.77;3.13;;;;;;;;;;5033981;28;20508;-77
2022/07/02 03:29:51;;;;;;;6.88;3.05;;;;;;;;;;5033350;28;20167;-77
2022/07/02 03:32:17;;;;;;;4.50;2.78;;;;;;;;;;5033986;28;20108;-76
2022/07/02 03:34:43;;;;;;;7.25;3.65;;;;;;;;;;5034268;28;20040;-77
2022/07/02 03:37:08;;;;;;;7.53;3.00;;;;;;;;;;5016871;28;20013;-77
2022/07/02 03:39:34;;;;;;;6.22;3.30;;;;;;;;;;5034345;28;20543;-78
2022/07/02 03:41:59;;;;;;;9.70;3.03;;;;;;;;;;5034620;28;20029;-76
2022/07/02 03:44:25;;;;;;;8.15;3.00;;;;;;;;;;5034198;28;20037;-76
2022/07/02 03:46:50;;;;;;;10.07;3.13;;;;;;;;;;5033041;28;20037;-76
2022/07/02 03:49:16;;;;;;;9.48;3.40;;;;;;;;;;5044309;28;20400;-76
2022/07/02 03:51:41;;;;;;;5.18;2.92;;;;;;;;;;5052625;28;20029;-78
2022/07/02 03:54:07;;;;;;;7.78;3.53;;;;;;;;;;5035245;28;20033;-78
2022/07/02 03:56:32;;;;;;;8.43;3.60;;;;;;;;;;5051290;28;20048;-76
2022/07/02 03:58:58;;;;;;;8.63;3.13;;;;;;;;;;5053037;28;20487;-78
2022/07/02 04:01:23;;;;;;;6.57;3.20;;;;;;;;;;5051563;28;20044;-77
2022/07/02 04:03:49;;;;;;;9.73;3.47;;;;;;;;;;5039846;28;20033;-77
2022/07/02 04:06:14;;;;;;;7.18;3.53;;;;;;;;;;5033225;28;20035;-78
2022/07/02 04:08:40;;;;;;;5.70;3.30;;;;;;;;;;5033296;28;20539;-75
2022/07/02 04:11:05;;;;;;;6.22;3.13;;;;;;;;;;5033966;28;20653;-75
2022/07/02 04:13:31;;;;;;;9.57;3.63;;;;;;;;;;5032374;28;20037;-76
2022/07/02 04:15:56;;;;;;;5.88;2.95;;;;;;;;;;5032922;28;20091;-77
2022/07/02 04:18:22;;;;;;;7.28;3.20;;;;;;;;;;5033883;28;20049;-76
2022/07/02 04:20:47;;;;;;;7.00;3.03;;;;;;;;;;5034060;28;20110;-77
2022/07/02 04:23:13;;;;;;;7.15;3.28;;;;;;;;;;5032489;28;20599;-77
2022/07/02 04:25:38;;;;;;;7.75;3.42;;;;;;;;;;5032535;28;20082;-77
2022/07/02 04:28:04;;;;;;;6.55;3.30;;;;;;;;;;5032385;28;20052;-76
2022/07/02 04:30:29;;;;;;;7.88;3.55;;;;;;;;;;5033201;28;20484;-77
2022/07/02 04:32:55;;;;;;;4.82;3.10;;;;;;;;;;5033234;28;20036;-78
2022/07/02 04:35:20;;;;;;;8.27;2.88;;;;;;;;;;5033314;28;20056;-76
2022/07/02 04:37:46;;;;;;;7.55;3.15;;;;;;;;;;5033089;28;20025;-76
2022/07/02 04:40:11;;;;;;;5.47;3.53;;;;;;;;;;5032660;28;20036;-76
2022/07/02 04:42:37;;;;;;;10.10;3.67;;;;;;;;;;5046075;28;20028;-76
2022/07/02 04:45:03;;;;;;;7.57;3.35;;;;;;;;;;5034063;28;20028;-77
2022/07/02 04:47:28;;;;;;;4.40;2.80;;;;;;;;;;5040144;28;20063;-77
2022/07/02 04:49:54;;;;;;;8.38;2.72;;;;;;;;;;5040755;28;20489;-77
2022/07/02 04:52:19;;;;;;;5.72;3.08;;;;;;;;;;5031195;28;20032;-78
2022/07/02 04:54:44;;;;;;;6.88;3.20;;;;;;;;;;5030977;28;20079;-77
2022/07/02 04:57:10;;;;;;;5.53;3.10;;;;;;;;;;5041281;28;20544;-77
2022/07/02 04:59:35;;;;;;;8.43;3.00;;;;;;;;;;5047252;28;20037;-77
2022/07/02 05:02:01;;;;;;;5.93;3.05;;;;;;;;;;5031355;28;20041;-76
2022/07/02 05:04:26;;;;;;;5.70;2.70;;;;;;;;;;5031435;28;20484;-77
2022/07/02 05:06:52;;;;;;;6.45;2.88;;;;;;;;;;5032922;28;20115;-77
2022/07/02 05:09:18;;;;;;;3.90;2.78;;;;;;;;;;5031870;28;20583;-78
2022/07/02 05:11:43;;;;;;;4.72;2.90;;;;;;;;;;5014666;28;20069;-79
2022/07/02 05:14:09;;;;;;;5.38;3.10;;;;;;;;;;5015399;28;20025;-78
2022/07/02 05:16:34;;;;;;;6.53;3.20;;;;;;;;;;5042559;28;20029;-79
2022/07/02 05:18:59;;;;;;;6.75;3.67;;;;;;;;;;5031832;28;20025;-79
2022/07/02 05:21:26;;;;;;;5.20;3.33;;;;;;;;;;5029713;28;20063;-78
2022/07/02 05:23:51;;;;;;;5.93;2.80;;;;;;;;;;5034958;28;20064;-77
2022/07/02 05:26:19;;;;;;;5.68;3.17;;;;;;;;;;5032124;28;20034;-76
2022/07/02 05:28:44;;;;;;;10.10;3.45;;;;;;;;;;5036703;28;20025;-77
2022/07/02 05:31:10;;;;;;;5.80;3.08;;;;;;;;;;5031946;28;20037;-77
2022/07/02 05:33:35;;;;;;;8.40;3.13;;;;;;;;;;5014675;28;20021;-77
2022/07/02 05:36:01;;;;;;;9.48;6.07;;;;;;;;;;5017412;28;20033;-76
2022/07/02 05:38:26;;;;;;;10.40;4.00;;;;;;;;;;5036967;28;20052;-78
2022/07/02 05:40:52;;;;;;;7.63;3.40;;;;;;;;;;5031749;28;20040;-78
2022/07/02 05:43:18;;;;;;;8.90;3.05;;;;;;;;;;5033674;28;20117;-80
2022/07/02 05:45:43;;;;;;;4.43;2.90;;;;;;;;;;5033129;28;20082;-78
2022/07/02 05:48:09;;;;;;;6.47;3.15;;;;;;;;;;5035951;28;20104;-78
2022/07/02 05:50:34;;;;;;;6.32;3.20;;;;;;;;;;5035938;28;20465;-77
2022/07/02 05:53:00;;;;;;;6.45;3.08;;;;;;;;;;5023574;28;20048;-78
2022/07/02 05:55:25;;;;;;;5.90;3.08;;;;;;;;;;5021998;28;20052;-79
2022/07/02 05:57:50;;;;;;;7.30;3.85;;;;;;;;;;5017411;28;20473;-78
2022/07/02 06:00:16;;;;;;;8.85;3.47;;;;;;;;;;5035589;28;20044;-77
2022/07/02 06:02:41;;;;;;;7.47;3.50;;;;;;;;;;5037037;28;20025;-79
2022/07/02 06:07:51;;;;;;;5.47;3.15;;;;;;;;;;5034900;28;20060;-79
2022/07/02 06:10:20;;;;;;;6.22;4.47;;;;;;;;;;5032913;28;20037;-78
2022/07/02 06:12:46;;;;;;;5.28;3.80;;;;;;;;;;5035901;28;20056;-78
2022/07/02 06:15:12;;;;;;;4.85;3.17;;;;;;;;;;5017771;28;20104;-78
2022/07/02 06:17:37;;;;;;;5.60;3.17;;;;;;;;;;5035290;28;20171;-76
2022/07/02 06:20:03;;;;;;;5.10;3.20;;;;;;;;;;5034877;28;20037;-77
2022/07/02 06:22:28;;;;;;;4.50;2.95;;;;;;;;;;5018397;28;20036;-78
2022/07/02 06:24:55;;;;;;;4.38;3.03;;;;;;;;;;5035893;28;20631;-78
2022/07/02 06:27:21;;;;;;;7.10;3.10;;;;;;;;;;5037127;28;20037;-78
2022/07/02 06:29:48;;;;;;;7.55;3.10;;;;;;;;;;5047697;28;20040;-77
2022/07/02 06:32:13;;;;;;;3.80;2.85;;;;;;;;;;5041546;28;20065;-77
2022/07/02 06:34:39;;;;;;;4.70;2.90;;;;;;;;;;5049945;28;20045;-78
2022/07/02 06:37:04;;;;;;;5.07;2.95;;;;;;;;;;5045471;28;20029;-77
2022/07/02 06:39:30;;;;;;;4.25;3.13;;;;;;;;;;5039477;28;20032;-77
2022/07/02 06:44:41;;;;;;;5.03;3.65;;;;;;;;;;5026217;28;20033;-77
2022/07/02 06:47:06;;;;;;;7.55;3.67;;;;;;;;;;5035469;28;20044;-77
2022/07/02 06:49:32;;;;;;;4.53;3.08;;;;;;;;;;5034053;28;20072;-77
2022/07/02 06:51:57;;;;;;;3.97;3.28;;;;;;;;;;5034116;28;20021;-78
2022/07/02 06:54:22;;;;;;;4.65;3.42;;;;;;;;;;5033825;28;20381;-77
2022/07/02 06:56:48;;;;;;;4.30;2.83;;;;;;;;;;5034232;28;20030;-78
2022/07/02 06:59:13;;;;;;;4.43;3.10;;;;;;;;;;5024792;28;20489;-79
2022/07/02 07:01:39;;;;;;;5.55;3.13;;;;;;;;;;5029463;28;20025;-78
2022/07/02 07:04:04;;;;;;;6.95;2.80;;;;;;;;;;5017009;28;20076;-77
2022/07/02 07:06:35;;;;;;;5.30;3.03;;;;;;;;;;5036918;28;20480;-79
2022/07/02 07:09:00;;;;;;;4.20;2.90;;;;;;;;;;5033186;28;20049;-78
2022/07/02 07:11:25;;;;;;;7.10;3.10;;;;;;;;;;5030142;28;20049;-78
2022/07/02 07:13:51;;;;;;;4.20;2.63;;;;;;;;;;5034590;28;20032;-79
2022/07/02 07:16:16;;;;;;;4.35;2.75;;;;;;;;;;5033330;28;20021;-79
2022/07/02 07:18:54;;;;;;;4.05;2.83;;;;;;;;;;5036227;28;20072;-79
2022/07/02 07:21:20;;;;;;;6.28;3.10;;;;;;;;;;5040309;28;20032;-78
2022/07/02 07:23:45;;;;;;;6.47;2.70;;;;;;;;;;5038684;28;20104;-84
2022/07/02 07:26:11;;;;;;;4.50;2.67;;;;;;;;;;5024500;28;20059;-80
2022/07/02 07:28:36;;;;;;;4.63;3.13;;;;;;;;;;5044170;28;20056;-79
2022/07/02 07:31:02;;;;;;;6.07;2.80;;;;;;;;;;5041672;28;20038;-78
2022/07/02 07:33:27;;;;;;;4.43;2.80;;;;;;;;;;5037566;28;20108;-78
2022/07/02 07:35:52;;;;;;;6.22;3.47;;;;;;;;;;5016680;28;20037;-79
2022/07/02 07:38:18;;;;;;;6.38;2.88;;;;;;;;;;5033413;28;20168;-78
2022/07/02 07:40:43;;;;;;;8.60;4.40;;;;;;;;;;5033912;28;20163;-78
2022/07/02 07:43:09;;;;;;;5.00;3.03;;;;;;;;;;5033392;28;20030;-78
2022/07/02 07:45:35;;;;;;;4.22;2.80;;;;;;;;;;5033726;28;20733;-82
2022/07/02 07:48:00;;;;;;;4.05;2.75;;;;;;;;;;5033514;28;20040;-79
2022/07/02 07:50:26;;;;;;;5.15;3.40;;;;;;;;;;5035212;28;20547;-79
2022/07/02 07:52:51;;;;;;;6.88;3.40;;;;;;;;;;5034709;28;20021;-78
2022/07/02 07:55:17;;;;;;;6.63;3.72;;;;;;;;;;5034951;28;20072;-80
2022/07/02 07:57:42;;;;;;;7.97;4.03;;;;;;;;;;5052704;28;20024;-83
2022/07/02 08:00:08;;;;;;;7.40;3.33;;;;;;;;;;5027031;28;20120;-77
2022/07/02 08:02:40;;;;;;;5.57;3.47;;;;;;;;;;5024951;28;20916;-79
2022/07/02 08:05:06;;;;;;;6.45;3.40;;;;;;;;;;5010333;28;20034;-78
2022/07/02 08:07:35;;;;;;;5.82;2.70;;;;;;;;;;5039525;28;20140;-79
2022/07/02 08:10:00;;;;;;;6.05;2.90;;;;;;;;;;5036717;28;20038;-78
2022/07/02 08:12:27;;;;;;;5.45;2.75;;;;;;;;;;5037393;28;20075;-81
2022/07/02 08:14:52;;;;;;;4.53;2.95;;;;;;;;;;5031238;28;20037;-80
2022/07/02 08:17:18;;;;;;;3.83;2.70;;;;;;;;;;5032291;28;20030;-80
2022/07/02 08:19:43;;;;;;;4.30;2.83;;;;;;;;;;5032654;28;20044;-81
2022/07/02 08:22:09;;;;;;;3.92;2.47;;;;;;;;;;5016213;28;20025;-78
2022/07/02 08:24:34;;;;;;;5.95;3.17;;;;;;;;;;5034599;28;20037;-80
2022/07/02 08:27:00;;;;;;;5.68;3.00;;;;;;;;;;5044310;28;20029;-80
2022/07/02 08:29:25;;;;;;;4.95;2.80;;;;;;;;;;5046426;28;20509;-80
2022/07/02 08:31:52;;;;;;;3.85;2.30;;;;;;;;;;5025821;28;20044;-79
2022/07/02 08:34:17;;;;;;;5.78;3.20;;;;;;;;;;5048210;28;20041;-79
2022/07/02 08:36:43;;;;;;;11.80;2.72;;;;;;;;;;5026238;28;20036;-81
2022/07/02 08:39:08;;;;;;;5.03;2.78;;;;;;;;;;5030714;28;20115;-78
2022/07/02 08:41:34;;;;;;;4.50;2.40;;;;;;;;;;5043939;28;20025;-79
2022/07/02 08:44:00;;;;;;;7.88;2.90;;;;;;;;;;5046927;28;20041;-81
2022/07/02 08:46:25;;;;;;;5.55;2.80;;;;;;;;;;5033250;28;20121;-81
2022/07/02 08:48:50;;;;;;;4.45;2.78;;;;;;;;;;5031369;28;20034;-79
2022/07/02 08:51:16;;;;;;;8.57;2.80;;;;;;;;;;5009617;28;20388;-80
2022/07/02 08:53:41;;;;;;;6.40;2.75;;;;;;;;;;5018921;28;20033;-82
2022/07/02 08:56:08;;;;;;;5.28;2.88;;;;;;;;;;5033863;28;20037;-79
2022/07/02 08:58:33;;;;;;;7.38;2.85;;;;;;;;;;5030162;28;20396;-81
2022/07/02 09:00:59;;;;;;;12.45;3.50;;;;;;;;;;5033780;28;20032;-78
2022/07/02 09:03:25;;;;;;;5.45;2.90;;;;;;;;;;5032719;28;20045;-79
2022/07/02 09:05:51;;;;;;;3.88;2.70;;;;;;;;;;4998239;28;20540;-80
2022/07/02 09:08:17;;;;;;;4.68;3.10;;;;;;;;;;5032227;28;20053;-80
2022/07/02 09:10:43;;;;;;;4.53;2.40;;;;;;;;;;5014376;28;20487;-81
2022/07/02 09:13:08;;;;;;;5.35;2.45;;;;;;;;;;5042889;28;20032;-78
2022/07/02 09:15:34;;;;;;;3.60;2.40;;;;;;;;;;5022273;28;20036;-78
2022/07/02 09:17:59;;;;;;;4.82;2.60;;;;;;;;;;5043882;28;20031;-77
2022/07/02 09:20:25;;;;;;;4.63;2.58;;;;;;;;;;5019672;28;20437;-79
2022/07/02 09:22:51;;;;;;;3.30;2.40;;;;;;;;;;5031525;28;20036;-79
2022/07/02 09:25:16;;;;;;;4.63;2.55;;;;;;;;;;5031834;28;20120;-82
2022/07/02 09:27:42;;;;;;;4.18;2.85;;;;;;;;;;5034045;28;20033;-79
2022/07/02 09:30:08;;;;;;;4.10;2.95;;;;;;;;;;5031945;28;20028;-79
2022/07/02 09:32:37;;;;;;;4.68;2.80;;;;;;;;;;5031250;28;20036;-80
2022/07/02 09:35:03;;;;;;;4.15;2.60;;;;;;;;;;5015185;28;20495;-78
2022/07/02 09:37:28;;;;;;;5.18;2.92;;;;;;;;;;5031058;28;20029;-78
2022/07/02 09:39:57;;;;;;;5.03;2.50;;;;;;;;;;5032908;28;20024;-79
2022/07/02 09:42:26;;;;;;;3.70;2.30;;;;;;;;;;5027631;28;20068;-78
2022/07/02 09:44:51;;;;;;;5.90;2.15;;;;;;;;;;5014510;28;20041;-78
2022/07/02 09:47:17;;;;;;;3.50;2.65;;;;;;;;;;5029303;28;20439;-81
2022/07/02 09:49:47;;;;;;;3.20;2.38;;;;;;;;;;5027795;28;20033;-78
2022/07/02 09:52:16;;;;;;;3.88;2.70;;;;;;;;;;5029413;28;20028;-80
2022/07/02 09:54:42;;;;;;;7.60;2.55;;;;;;;;;;5027305;28;20039;-80
2022/07/02 09:57:08;;;;;;;5.32;2.60;;;;;;;;;;5029720;28;20029;-80
2022/07/02 09:59:37;;;;;;;4.03;2.42;;;;;;;;;;5046883;28;20028;-85
2022/07/02 10:02:03;;;;;;;5.53;2.38;;;;;;;;;;5020492;28;20033;-83
2022/07/02 10:04:29;;;;;;;3.70;2.38;;;;;;;;;;5018730;28;20040;-86
2022/07/02 10:06:55;;;;;;;3.63;2.03;;;;;;;;;;5051114;28;20065;-82
2022/07/02 10:09:21;;;;;;;3.72;2.22;;;;;;;;;;5049421;28;20377;-82
2022/07/02 10:11:47;;;;;;;3.08;2.10;;;;;;;;;;5050086;28;20045;-82
2022/07/02 10:14:12;;;;;;;3.58;2.10;;;;;;;;;;5028392;28;20025;-82
2022/07/02 10:16:39;;;;;;;5.90;2.30;;;;;;;;;;5012607;28;20116;-83
2022/07/02 10:19:04;;;;;;;3.03;2.20;;;;;;;;;;5034283;28;20438;-83
2022/07/02 10:21:30;;;;;;;4.57;2.20;;;;;;;;;;5033184;28;20044;-82
2022/07/02 10:23:55;;;;;;;4.63;2.30;;;;;;;;;;5014553;28;20036;-83
2022/07/02 10:26:21;;;;;;;3.72;2.30;;;;;;;;;;5030846;28;20038;-81
2022/07/02 10:28:46;;;;;;;4.25;2.00;;;;;;;;;;5016415;28;20027;-83
2022/07/02 10:31:14;;;;;;;6.22;2.42;;;;;;;;;;5031430;28;20060;-82
2022/07/02 10:33:42;;;;;;;3.17;1.90;;;;;;;;;;5035302;28;20029;-82
2022/07/02 10:36:10;;;;;;;4.82;2.40;;;;;;;;;;5034838;28;20395;-83
2022/07/02 10:38:38;;;;;;;3.65;2.30;;;;;;;;;;5037259;28;20083;-82
2022/07/02 10:41:04;;;;;;;2.97;1.85;;;;;;;;;;5032410;28;20099;-82
2022/07/02 10:43:33;;;;;;;3.72;2.15;;;;;;;;;;5038116;28;20041;-82
2022/07/02 10:46:06;;;;;;;5.13;1.95;;;;;;;;;;5034275;28;20060;-82
2022/07/02 10:48:34;;;;;;;2.55;1.77;;;;;;;;;;5034549;28;20037;-84
2022/07/02 10:51:00;;;;;;;4.38;2.25;;;;;;;;;;5037461;28;20029;-83
2022/07/02 10:53:27;;;;;;;4.35;2.10;;;;;;;;;;5036137;28;20409;-82
2022/07/02 10:56:02;;;;;;;3.30;1.88;;;;;;;;;;5034583;28;20022;-82
2022/07/02 10:58:28;;;;;;;4.43;2.10;;;;;;;;;;5015625;28;20033;-83
2022/07/02 11:00:53;;;;;;;3.58;1.83;;;;;;;;;;5036139;28;20029;-82
2022/07/02 11:03:26;;;;;;;3.17;2.13;;;;;;;;;;5036506;28;20029;-81
2022/07/02 11:05:55;;;;;;;3.30;2.15;;;;;;;;;;5036177;28;20029;-82
2022/07/02 11:08:26;;;;;;;2.85;1.98;;;;;;;;;;5034211;28;20053;-83
2022/07/02 11:10:52;;;;;;;3.65;1.90;;;;;;;;;;5036590;28;20030;-83
2022/07/02 11:13:17;;;;;;;5.57;1.85;;;;;;;;;;5033505;28;20104;-82
2022/07/02 11:15:43;;;;;;;4.15;2.15;;;;;;;;;;5035447;28;20065;-83
2022/07/02 11:18:08;;;;;;;3.35;2.03;;;;;;;;;;5034024;28;20072;-84
2022/07/02 11:20:35;;;;;;;5.50;2.00;;;;;;;;;;5019040;28;20468;-82
2022/07/02 11:23:00;;;;;;;3.05;1.90;;;;;;;;;;5036592;28;20106;-83
2022/07/02 11:25:28;;;;;;;3.22;2.10;;;;;;;;;;5014946;28;20056;-84
2022/07/02 11:27:57;;;;;;;2.72;2.00;;;;;;;;;;5035627;28;20396;-82
2022/07/02 11:30:23;;;;;;;2.20;1.83;;;;;;;;;;5037289;28;20099;-83
2022/07/02 11:32:49;;;;;;;2.90;1.80;;;;;;;;;;5037339;28;20036;-84
2022/07/02 11:35:16;;;;;;;3.78;1.70;;;;;;;;;;5045131;28;20033;-81
2022/07/02 11:37:44;;;;;;;4.25;2.05;;;;;;;;;;5046890;28;20033;-81
2022/07/02 11:40:20;;;;;;;4.47;1.70;;;;;;;;;;5044343;28;20032;-81
2022/07/02 11:42:45;;;;;;;;;;;;;;;;;;5044194;28;20033;-86
2022/07/02 11:45:11;;;;;;;3.78;1.80;;;;;;;;;;5041383;28;20004;-80
2022/07/02 11:47:45;;;;;;;2.95;1.42;;;;;;;;;;5032573;28;20029;-79
2022/07/02 11:50:11;;;;;;;3.28;1.77;;;;;;;;;;5052149;28;20182;-86
2022/07/02 11:52:37;;;;;;;2.92;1.80;;;;;;;;;;5054245;28;20456;-81
2022/07/02 11:55:03;;;;;;;3.80;1.70;;;;;;;;;;5019287;28;20480;-82
2022/07/02 11:57:32;;;;;;;4.18;2.00;;;;;;;;;;5054585;28;20495;-86
2022/07/02 11:59:57;;;;;;;2.53;1.77;;;;;;;;;;5028955;28;20037;-84
2022/07/02 12:02:23;;;;;;;4.63;2.00;;;;;;;;;;5035636;28;20025;-82
2022/07/02 12:04:48;;;;;;;4.75;1.75;;;;;;;;;;5036703;28;20029;-83
2022/07/02 12:07:14;;;;;;;3.60;1.70;;;;;;;;;;5036759;28;20064;-82
2022/07/02 12:09:39;;;;;;;2.50;1.80;;;;;;;;;;5034153;28;20484;-83
2022/07/02 12:12:05;;;;;;;4.65;2.15;;;;;;;;;;5033280;28;20108;-82
2022/07/02 12:14:31;;;;;;;3.90;1.90;;;;;;;;;;5018434;28;20053;-81
2022/07/02 12:16:56;;;;;;;2.85;1.92;;;;;;;;;;5034242;28;20029;-82
2022/07/02 12:19:28;;;;;;;4.68;1.80;;;;;;;;;;5035171;28;20037;-81
2022/07/02 12:21:53;;;;;;;3.05;1.88;;;;;;;;;;5030905;28;20459;-79
2022/07/02 12:24:19;;;;;;;2.95;1.98;;;;;;;;;;5036647;28;20052;-82
2022/07/02 12:26:45;;;;;;;3.75;1.70;;;;;;;;;;5035732;28;20033;-85
2022/07/02 12:32:09;;;;;;;3.90;1.98;;;;;;;;;;5035182;28;20056;-83
2022/07/02 12:34:45;;;;;;;5.75;1.90;;;;;;;;;;5033235;28;20408;-82
2022/07/02 12:37:19;;;;;;;5.47;1.75;;;;;;;;;;5019187;28;20026;-82
2022/07/02 12:39:44;;;;;;;3.53;1.58;;;;;;;;;;5034406;28;20107;-82
2022/07/02 12:42:19;;;;;;;3.17;1.73;;;;;;;;;;5025316;28;20038;-82
2022/07/02 12:44:55;;;;;;;2.80;1.60;;;;;;;;;;5015723;28;20043;-82
2022/07/02 12:47:21;;;;;;;3.85;1.60;;;;;;;;;;5032028;28;20116;-83
2022/07/02 12:49:57;;;;;;;3.67;1.63;;;;;;;;;;5034681;28;20120;-83
2022/07/02 12:52:23;;;;;;;7.30;2.17;;;;;;;;;;5014269;28;20524;-81
2022/07/02 12:54:48;;;;;;;3.95;1.80;;;;;;;;;;5035479;28;20075;-82
2022/07/02 12:57:18;;;;;;;4.60;1.65;;;;;;;;;;5035596;28;20048;-82
2022/07/02 12:59:45;;;;;;;3.85;1.80;;;;;;;;;;5032396;28;20079;-84
2022/07/02 13:02:14;;;;;;;2.75;1.85;;;;;;;;;;4999543;28;20044;-79
2022/07/02 13:04:40;;;;;;;4.57;1.80;;;;;;;;;;5035299;28;20393;-84
2022/07/02 13:07:06;;;;;;;6.28;1.90;;;;;;;;;;5011855;28;20059;-81
2022/07/02 13:09:31;;;;;;;3.30;1.50;;;;;;;;;;5033510;28;20045;-80
2022/07/02 13:11:56;;;;;;;3.42;1.88;;;;;;;;;;5032313;28;20071;-81
2022/07/02 13:14:22;;;;;;;3.70;1.80;;;;;;;;;;5034975;28;20025;-82
2022/07/02 13:16:47;;;;;;;4.88;1.52;;;;;;;;;;5033105;28;20029;-81
2022/07/02 13:19:13;;;;;;;4.07;1.80;;;;;;;;;;5033276;28;20087;-81
2022/07/02 13:21:38;;;;;;;2.35;1.60;;;;;;;;;;5034304;28;20036;-83
2022/07/02 13:24:04;;;;;;;1.88;1.40;;;;;;;;;;5001180;28;20541;-83
2022/07/02 13:26:29;;;;;;;3.35;1.50;;;;;;;;;;5034279;28;20028;-83
2022/07/02 13:28:55;;;;;;;4.10;1.50;;;;;;;;;;5034674;28;20021;-85
2022/07/02 13:31:20;;;;;;;3.60;1.63;;;;;;;;;;5031133;28;20037;-83
2022/07/02 13:33:46;;;;;;;3.58;1.60;;;;;;;;;;5033050;28;20025;-83
2022/07/02 13:36:11;;;;;;;4.15;1.80;;;;;;;;;;5032078;28;20108;-82
2022/07/02 13:38:37;;;;;;;2.35;1.52;;;;;;;;;;5034686;28;20025;-82
2022/07/02 13:41:02;;;;;;;3.67;1.55;;;;;;;;;;5030420;28;20421;-82
2022/07/02 13:43:28;;;;;;;3.30;1.60;;;;;;;;;;5034003;28;20083;-83
2022/07/02 13:45:54;;;;;;;2.97;1.77;;;;;;;;;;5034041;28;20458;-82
2022/07/02 13:48:19;;;;;;;3.90;1.50;;;;;;;;;;5033109;28;20056;-81
2022/07/02 13:50:45;;;;;;;5.97;1.70;;;;;;;;;;5031923;28;20044;-83
2022/07/02 13:53:10;;;;;;;2.85;1.38;;;;;;;;;;5035619;28;20067;-83
2022/07/02 13:55:36;;;;;;;4.53;1.60;;;;;;;;;;5033789;28;20042;-83
2022/07/02 13:58:02;;;;;;;5.93;1.50;;;;;;;;;;5035249;28;20125;-83
2022/07/02 14:00:27;;;;;;;3.67;1.88;;;;;;;;;;5033069;28;20037;-83
2022/07/02 14:02:54;;;;;;;4.95;1.92;;;;;;;;;;5016092;28;20024;-85
2022/07/02 14:05:20;;;;;;;2.78;1.80;;;;;;;;;;5034696;28;20044;-83
2022/07/02 14:07:45;;;;;;;6.57;1.83;;;;;;;;;;4998774;28;20053;-84
2022/07/02 14:10:11;;;;;;;6.15;1.70;;;;;;;;;;5034878;28;20077;-82
2022/07/02 14:12:36;;;;;;;5.38;2.17;;;;;;;;;;5040060;28;20110;-81
2022/07/02 14:15:02;;;;;;;4.60;1.90;;;;;;;;;;5017058;28;20513;-81
2022/07/02 14:17:27;;;;;;;4.65;2.10;;;;;;;;;;5036399;28;20022;-83
2022/07/02 14:19:53;;;;;;;5.20;1.70;;;;;;;;;;5043418;28;20120;-83
2022/07/02 14:22:19;;;;;;;4.10;1.60;;;;;;;;;;5046828;28;20025;-82
2022/07/02 14:24:45;;;;;;;2.45;1.60;;;;;;;;;;5045602;28;20077;-81
2022/07/02 14:27:10;;;;;;;4.38;1.80;;;;;;;;;;5041946;28;20045;-81
2022/07/02 14:29:36;;;;;;;3.88;1.80;;;;;;;;;;5041428;28;20045;-82
2022/07/02 14:32:01;;;;;;;4.57;2.00;;;;;;;;;;5031831;28;20038;-81
2022/07/02 14:34:27;;;;;;;2.78;1.80;;;;;;;;;;5033669;28;20037;-81
2022/07/02 14:36:52;;;;;;;4.63;1.70;;;;;;;;;;5034986;28;20104;-82
2022/07/02 14:39:18;;;;;;;2.97;1.88;;;;;;;;;;5039403;28;20547;-83
2022/07/02 14:41:44;;;;;;;4.38;1.77;;;;;;;;;;5030200;28;20024;-81
2022/07/02 14:44:10;;;;;;;6.15;2.00;;;;;;;;;;5053708;28;20053;-84